sensor_id;sensor_type;location;lat;lon;timestamp;pressure;altitude;pressure_sealevel;temperature;humidity
59419;BME280;45224;50.904;6.038;2022-09-09T00:03:02;99135.91;;;16.42;81.52
59419;BME280;45224;50.904;6.038;2022-09-09T00:04:37;99133.31;;;16.42;80.94
59419;BME280;45224;50.904;6.038;2022-09-09T00:06:21;99142.34;;;16.32;81.40
59419;BME280;45224;50.904;6.038;2022-09-09T00:07:55;99125.81;;;16.33;80.89
59419;BME280;45224;50.904;6.038;2022-09-09T00:09:35;99133.66;;;16.33;80.99
59419;BME280;45224;50.904;6.038;2022-09-09T00:11:12;99129.09;;;16.13;82.31
59419;BME280;45224;50.904;6.038;2022-09-09T00:13:07;99127.22;;;16.16;82.00
59419;BME280;45224;50.904;6.038;2022-09-09T00:14:51;99122.06;;;16.15;81.39
59419;BME280;45224;50.904;6.038;2022-09-09T00:16:27;99120.41;;;16.12;81.54
59419;BME280;45224;50.904;6.038;2022-09-09T00:18:10;99124.41;;;16.22;80.56
59419;BME280;45224;50.904;6.038;2022-09-09T00:19:53;99128.00;;;16.20;80.99
59419;BME280;45224;50.904;6.038;2022-09-09T00:21:35;99120.22;;;16.18;80.73
59419;BME280;45224;50.904;6.038;2022-09-09T00:23:12;99108.28;;;16.11;81.13
59419;BME280;45224;50.904;6.038;2022-09-09T00:24:49;99120.25;;;16.17;80.96
59419;BME280;45224;50.904;6.038;2022-09-09T00:28:23;99116.72;;;16.18;80.67
59419;BME280;45224;50.904;6.038;2022-09-09T00:30:24;99116.72;;;16.18;80.71
59419;BME280;45224;50.904;6.038;2022-09-09T00:32:11;99119.53;;;16.13;81.13
59419;BME280;45224;50.904;6.038;2022-09-09T00:33:43;99108.38;;;16.08;80.92
59419;BME280;45224;50.904;6.038;2022-09-09T00:35:18;99115.31;;;16.09;80.89
59419;BME280;45224;50.904;6.038;2022-09-09T00:36:53;99102.47;;;16.03;81.14
59419;BME280;45224;50.904;6.038;2022-09-09T00:38:38;99107.97;;;15.94;82.02
59419;BME280;45224;50.904;6.038;2022-09-09T00:40:26;99111.41;;;15.96;81.93
59419;BME280;45224;50.904;6.038;2022-09-09T00:43:40;99108.50;;;16.03;80.98
59419;BME280;45224;50.904;6.038;2022-09-09T00:46:56;99108.78;;;15.96;81.68
59419;BME280;45224;50.904;6.038;2022-09-09T00:48:54;99106.38;;;15.90;82.69
59419;BME280;45224;50.904;6.038;2022-09-09T00:50:51;99110.63;;;15.92;82.24
59419;BME280;45224;50.904;6.038;2022-09-09T00:52:47;99105.50;;;15.91;82.30
59419;BME280;45224;50.904;6.038;2022-09-09T00:58:26;99097.03;;;15.82;83.03
59419;BME280;45224;50.904;6.038;2022-09-09T01:01:48;99102.44;;;15.78;83.57
59419;BME280;45224;50.904;6.038;2022-09-09T01:05:02;99111.25;;;15.72;84.72
59419;BME280;45224;50.904;6.038;2022-09-09T01:06:36;99110.38;;;15.73;84.44
59419;BME280;45224;50.904;6.038;2022-09-09T01:08:36;99110.59;;;15.65;85.36
59419;BME280;45224;50.904;6.038;2022-09-09T01:10:20;99106.19;;;15.67;85.28
59419;BME280;45224;50.904;6.038;2022-09-09T01:12:26;99104.63;;;15.62;86.03
59419;BME280;45224;50.904;6.038;2022-09-09T01:16:04;99118.28;;;15.70;85.38
59419;BME280;45224;50.904;6.038;2022-09-09T01:17:50;99118.38;;;15.67;86.01
59419;BME280;45224;50.904;6.038;2022-09-09T01:19:32;99118.38;;;15.67;86.29
59419;BME280;45224;50.904;6.038;2022-09-09T01:21:55;99114.84;;;15.68;86.33
59419;BME280;45224;50.904;6.038;2022-09-09T01:27:27;99117.56;;;15.65;86.00
59419;BME280;45224;50.904;6.038;2022-09-09T01:28:58;99113.28;;;15.62;86.33
59419;BME280;45224;50.904;6.038;2022-09-09T01:30:41;99111.63;;;15.60;86.46
59419;BME280;45224;50.904;6.038;2022-09-09T01:32:37;99111.34;;;15.69;85.99
59419;BME280;45224;50.904;6.038;2022-09-09T01:34:11;99110.78;;;15.59;87.07
59419;BME280;45224;50.904;6.038;2022-09-09T01:36:04;99111.53;;;15.63;86.58
59419;BME280;45224;50.904;6.038;2022-09-09T01:37:43;99107.44;;;15.56;87.23
59419;BME280;45224;50.904;6.038;2022-09-09T01:39:14;99114.28;;;15.58;86.93
59419;BME280;45224;50.904;6.038;2022-09-09T01:40:45;99109.28;;;15.52;87.57
59419;BME280;45224;50.904;6.038;2022-09-09T01:42:17;99093.94;;;15.43;88.45
59419;BME280;45224;50.904;6.038;2022-09-09T01:43:48;99105.00;;;15.49;88.23
59419;BME280;45224;50.904;6.038;2022-09-09T01:45:21;99097.28;;;15.46;88.62
59419;BME280;45224;50.904;6.038;2022-09-09T01:46:52;99101.59;;;15.47;88.01
59419;BME280;45224;50.904;6.038;2022-09-09T01:48:25;99101.50;;;15.50;87.73
59419;BME280;45224;50.904;6.038;2022-09-09T01:50:07;99100.78;;;15.45;88.60
59419;BME280;45224;50.904;6.038;2022-09-09T01:51:39;99104.41;;;15.41;89.04
59419;BME280;45224;50.904;6.038;2022-09-09T01:53:17;99105.84;;;15.50;88.14
59419;BME280;45224;50.904;6.038;2022-09-09T01:54:48;99104.16;;;15.49;88.51
59419;BME280;45224;50.904;6.038;2022-09-09T01:56:51;99106.63;;;15.54;88.16
59419;BME280;45224;50.904;6.038;2022-09-09T02:00:18;99106.38;;;15.61;87.46
59419;BME280;45224;50.904;6.038;2022-09-09T02:02:08;99100.41;;;15.58;88.15
59419;BME280;45224;50.904;6.038;2022-09-09T02:03:44;99104.69;;;15.60;87.94
59419;BME280;45224;50.904;6.038;2022-09-09T02:05:38;99106.31;;;15.63;87.66
59419;BME280;45224;50.904;6.038;2022-09-09T02:09:10;99096.09;;;15.57;88.55
59419;BME280;45224;50.904;6.038;2022-09-09T02:10:47;99101.94;;;15.65;87.91
59419;BME280;45224;50.904;6.038;2022-09-09T02:12:33;99091.84;;;15.54;89.11
59419;BME280;45224;50.904;6.038;2022-09-09T02:14:08;99096.88;;;15.60;88.59
59419;BME280;45224;50.904;6.038;2022-09-09T02:15:56;99093.16;;;15.67;87.93
59419;BME280;45224;50.904;6.038;2022-09-09T02:17:31;99099.34;;;15.65;88.90
59419;BME280;45224;50.904;6.038;2022-09-09T02:19:19;99093.91;;;15.71;87.60
59419;BME280;45224;50.904;6.038;2022-09-09T02:21:23;99094.13;;;15.65;88.35
59419;BME280;45224;50.904;6.038;2022-09-09T02:22:55;99089.59;;;15.70;88.15
59419;BME280;45224;50.904;6.038;2022-09-09T02:24:30;99087.84;;;15.70;88.03
59419;BME280;45224;50.904;6.038;2022-09-09T02:26:21;99085.19;;;15.72;87.72
59419;BME280;45224;50.904;6.038;2022-09-09T02:27:59;99088.44;;;15.80;87.41
59419;BME280;45224;50.904;6.038;2022-09-09T02:29:34;99078.97;;;15.78;87.41
59419;BME280;45224;50.904;6.038;2022-09-09T02:31:06;99081.88;;;15.67;88.58
59419;BME280;45224;50.904;6.038;2022-09-09T02:32:43;99079.13;;;15.72;87.50
59419;BME280;45224;50.904;6.038;2022-09-09T02:34:18;99087.75;;;15.74;87.80
59419;BME280;45224;50.904;6.038;2022-09-09T02:35:52;99076.41;;;15.76;87.42
59419;BME280;45224;50.904;6.038;2022-09-09T02:37:33;99090.25;;;15.78;87.91
59419;BME280;45224;50.904;6.038;2022-09-09T02:39:07;99083.22;;;15.80;87.21
59419;BME280;45224;50.904;6.038;2022-09-09T02:40:39;99085.19;;;15.72;88.26
59419;BME280;45224;50.904;6.038;2022-09-09T02:42:10;99078.25;;;15.71;88.59
59419;BME280;45224;50.904;6.038;2022-09-09T02:43:41;99083.56;;;15.68;88.65
59419;BME280;45224;50.904;6.038;2022-09-09T02:45:20;99086.91;;;15.73;87.91
59419;BME280;45224;50.904;6.038;2022-09-09T02:48:40;99083.47;;;15.71;88.55
59419;BME280;45224;50.904;6.038;2022-09-09T02:50:29;99090.31;;;15.75;88.25
59419;BME280;45224;50.904;6.038;2022-09-09T02:52:14;99086.03;;;15.73;88.63
59419;BME280;45224;50.904;6.038;2022-09-09T02:55:39;99083.13;;;15.83;87.64
59419;BME280;45224;50.904;6.038;2022-09-09T02:57:23;99087.59;;;15.80;88.17
59419;BME280;45224;50.904;6.038;2022-09-09T02:58:55;99083.97;;;15.84;87.77
59419;BME280;45224;50.904;6.038;2022-09-09T03:00:27;99080.72;;;15.76;88.63
59419;BME280;45224;50.904;6.038;2022-09-09T03:02:02;99090.41;;;15.72;89.38
59419;BME280;45224;50.904;6.038;2022-09-09T03:03:33;99088.59;;;15.74;88.88
59419;BME280;45224;50.904;6.038;2022-09-09T03:05:07;99081.59;;;15.78;88.39
59419;BME280;45224;50.904;6.038;2022-09-09T03:06:38;99076.44;;;15.75;88.97
59419;BME280;45224;50.904;6.038;2022-09-09T03:08:19;99084.19;;;15.78;88.34
59419;BME280;45224;50.904;6.038;2022-09-09T03:09:49;99088.53;;;15.77;88.79
59419;BME280;45224;50.904;6.038;2022-09-09T03:11:21;99084.94;;;15.81;88.17
59419;BME280;45224;50.904;6.038;2022-09-09T03:12:51;99089.34;;;15.79;88.81
59419;BME280;45224;50.904;6.038;2022-09-09T03:14:22;99084.25;;;15.76;89.00
59419;BME280;45224;50.904;6.038;2022-09-09T03:15:55;99078.00;;;15.80;88.45
59419;BME280;45224;50.904;6.038;2022-09-09T03:17:26;99091.97;;;15.79;88.27
59419;BME280;45224;50.904;6.038;2022-09-09T03:19:00;99085.81;;;15.80;88.09
59419;BME280;45224;50.904;6.038;2022-09-09T03:20:31;99085.78;;;15.82;87.93
59419;BME280;45224;50.904;6.038;2022-09-09T03:22:02;99083.31;;;15.77;88.01
59419;BME280;45224;50.904;6.038;2022-09-09T03:23:35;99082.38;;;15.80;88.20
59419;BME280;45224;50.904;6.038;2022-09-09T03:25:07;99077.91;;;15.83;87.52
59419;BME280;45224;50.904;6.038;2022-09-09T03:26:40;99088.44;;;15.80;87.94
59419;BME280;45224;50.904;6.038;2022-09-09T03:28:15;99078.69;;;15.85;87.18
59419;BME280;45224;50.904;6.038;2022-09-09T03:29:46;99085.88;;;15.79;87.87
59419;BME280;45224;50.904;6.038;2022-09-09T03:31:23;99083.91;;;15.85;86.96
59419;BME280;45224;50.904;6.038;2022-09-09T03:32:54;99087.59;;;15.80;87.80
59419;BME280;45224;50.904;6.038;2022-09-09T03:34:26;99088.22;;;15.86;87.02
59419;BME280;45224;50.904;6.038;2022-09-09T03:35:57;99080.66;;;15.79;87.26
59419;BME280;45224;50.904;6.038;2022-09-09T03:37:28;99079.88;;;15.75;87.95
59419;BME280;45224;50.904;6.038;2022-09-09T03:38:58;99085.03;;;15.78;87.18
59419;BME280;45224;50.904;6.038;2022-09-09T03:40:32;99084.88;;;15.83;87.06
59419;BME280;45224;50.904;6.038;2022-09-09T03:42:02;99078.94;;;15.79;87.09
59419;BME280;45224;50.904;6.038;2022-09-09T03:43:35;99090.25;;;15.78;87.19
59419;BME280;45224;50.904;6.038;2022-09-09T03:45:07;99092.91;;;15.75;87.03
59419;BME280;45224;50.904;6.038;2022-09-09T03:46:39;99087.59;;;15.80;86.53
59419;BME280;45224;50.904;6.038;2022-09-09T03:48:10;99084.19;;;15.78;86.46
59419;BME280;45224;50.904;6.038;2022-09-09T03:49:41;99083.31;;;15.77;86.80
59419;BME280;45224;50.904;6.038;2022-09-09T03:51:12;99081.63;;;15.76;86.57
59419;BME280;45224;50.904;6.038;2022-09-09T03:52:43;99087.75;;;15.74;86.78
59419;BME280;45224;50.904;6.038;2022-09-09T03:54:20;99087.78;;;15.72;86.82
59419;BME280;45224;50.904;6.038;2022-09-09T03:55:53;99085.19;;;15.72;86.72
59419;BME280;45224;50.904;6.038;2022-09-09T03:57:26;99082.63;;;15.70;86.56
59419;BME280;45224;50.904;6.038;2022-09-09T03:58:57;99089.56;;;15.72;86.81
59419;BME280;45224;50.904;6.038;2022-09-09T04:00:29;99079.88;;;15.75;86.09
59419;BME280;45224;50.904;6.038;2022-09-09T04:02:01;99093.91;;;15.71;86.67
59419;BME280;45224;50.904;6.038;2022-09-09T04:03:32;99085.19;;;15.72;86.36
59419;BME280;45224;50.904;6.038;2022-09-09T04:05:03;99090.31;;;15.75;86.41
59419;BME280;45224;50.904;6.038;2022-09-09T04:06:34;99081.53;;;15.79;85.95
59419;BME280;45224;50.904;6.038;2022-09-09T04:08:07;99082.31;;;15.81;85.57
59419;BME280;45224;50.904;6.038;2022-09-09T04:09:38;99083.13;;;15.83;85.54
59419;BME280;45224;50.904;6.038;2022-09-09T04:11:09;99078.97;;;15.78;86.36
59419;BME280;45224;50.904;6.038;2022-09-09T04:12:40;99082.31;;;15.81;85.85
59419;BME280;45224;50.904;6.038;2022-09-09T04:14:10;99084.25;;;15.76;86.35
59419;BME280;45224;50.904;6.038;2022-09-09T04:15:41;99073.81;;;15.76;86.33
59419;BME280;45224;50.904;6.038;2022-09-09T04:17:12;99079.03;;;15.76;86.12
59419;BME280;45224;50.904;6.038;2022-09-09T04:18:43;99071.22;;;15.76;86.03
59419;BME280;45224;50.904;6.038;2022-09-09T04:20:14;99078.00;;;15.80;85.94
59419;BME280;45224;50.904;6.038;2022-09-09T04:21:44;99072.78;;;15.80;85.94
59419;BME280;45224;50.904;6.038;2022-09-09T04:23:15;99074.41;;;15.84;85.52
59419;BME280;45224;50.904;6.038;2022-09-09T04:24:46;99069.19;;;15.84;85.45
59419;BME280;45224;50.904;6.038;2022-09-09T04:26:17;99070.22;;;15.79;86.18
59419;BME280;45224;50.904;6.038;2022-09-09T04:27:54;99063.16;;;15.82;85.69
59419;BME280;45224;50.904;6.038;2022-09-09T04:29:25;99070.88;;;15.85;85.58
59419;BME280;45224;50.904;6.038;2022-09-09T04:30:56;99064.03;;;15.83;85.63
59419;BME280;45224;50.904;6.038;2022-09-09T04:32:27;99062.97;;;15.88;85.12
59419;BME280;45224;50.904;6.038;2022-09-09T04:33:58;99074.22;;;15.91;85.00
59419;BME280;45224;50.904;6.038;2022-09-09T04:35:33;99070.19;;;16.07;84.15
59419;BME280;45224;50.904;6.038;2022-09-09T04:37:04;99065.06;;;16.04;83.71
59419;BME280;45224;50.904;6.038;2022-09-09T04:38:35;99061.97;;;15.93;84.70
59419;BME280;45224;50.904;6.038;2022-09-09T04:40:08;99072.69;;;15.83;85.56
59419;BME280;45224;50.904;6.038;2022-09-09T04:41:40;99070.69;;;15.92;84.61
59419;BME280;45224;50.904;6.038;2022-09-09T04:43:13;99060.56;;;15.82;84.61
59419;BME280;45224;50.904;6.038;2022-09-09T04:44:47;99062.22;;;15.85;84.70
59419;BME280;45224;50.904;6.038;2022-09-09T04:46:18;99067.53;;;15.82;85.12
59419;BME280;45224;50.904;6.038;2022-09-09T04:47:50;99062.38;;;15.80;85.17
59419;BME280;45224;50.904;6.038;2022-09-09T04:49:20;99067.09;;;15.67;85.51
59419;BME280;45224;50.904;6.038;2022-09-09T04:51:05;99067.75;;;15.74;85.67
59419;BME280;45224;50.904;6.038;2022-09-09T04:52:37;99063.28;;;15.79;85.10
59419;BME280;45224;50.904;6.038;2022-09-09T04:54:08;99067.53;;;15.82;85.33
59419;BME280;45224;50.904;6.038;2022-09-09T04:55:42;99070.97;;;15.82;84.74
59419;BME280;45224;50.904;6.038;2022-09-09T04:57:13;99067.47;;;15.83;84.70
59419;BME280;45224;50.904;6.038;2022-09-09T04:58:43;99072.69;;;15.83;84.68
59419;BME280;45224;50.904;6.038;2022-09-09T05:00:14;99072.78;;;15.80;84.92
59419;BME280;45224;50.904;6.038;2022-09-09T05:01:45;99073.63;;;15.81;84.75
59419;BME280;45224;50.904;6.038;2022-09-09T05:03:16;99072.31;;;15.67;85.47
59419;BME280;45224;50.904;6.038;2022-09-09T05:04:46;99072.13;;;15.74;84.70
59419;BME280;45224;50.904;6.038;2022-09-09T05:06:19;99066.78;;;15.78;84.48
59419;BME280;45224;50.904;6.038;2022-09-09T05:07:53;99074.22;;;15.62;85.45
59419;BME280;45224;50.904;6.038;2022-09-09T05:09:23;99083.19;;;15.54;86.08
59419;BME280;45224;50.904;6.038;2022-09-09T05:10:55;99083.06;;;15.57;86.00
59419;BME280;45224;50.904;6.038;2022-09-09T05:12:25;99075.16;;;15.60;85.31
59419;BME280;45224;50.904;6.038;2022-09-09T05:13:56;99084.72;;;15.59;85.68
59419;BME280;45224;50.904;6.038;2022-09-09T05:15:27;99080.38;;;15.60;85.32
59419;BME280;45224;50.904;6.038;2022-09-09T05:16:57;99069.00;;;15.62;85.40
59419;BME280;45224;50.904;6.038;2022-09-09T05:18:28;99073.38;;;15.62;85.43
59419;BME280;45224;50.904;6.038;2022-09-09T05:19:59;99074.31;;;15.59;85.40
59419;BME280;45224;50.904;6.038;2022-09-09T05:21:29;99083.41;;;15.46;85.59
59419;BME280;45224;50.904;6.038;2022-09-09T05:23:00;99080.88;;;15.44;86.13
59419;BME280;45224;50.904;6.038;2022-09-09T05:24:33;99085.06;;;15.48;85.31
59419;BME280;45224;50.904;6.038;2022-09-09T05:26:05;99077.16;;;15.51;85.02
59419;BME280;45224;50.904;6.038;2022-09-09T05:27:36;99072.91;;;15.49;85.40
59419;BME280;45224;50.904;6.038;2022-09-09T05:29:08;99073.84;;;15.46;85.75
59419;BME280;45224;50.904;6.038;2022-09-09T05:30:38;99076.50;;;15.45;85.37
59419;BME280;45224;50.904;6.038;2022-09-09T05:32:10;99076.22;;;15.54;85.12
59419;BME280;45224;50.904;6.038;2022-09-09T05:33:41;99080.53;;;15.55;84.81
59419;BME280;45224;50.904;6.038;2022-09-09T05:35:13;99082.38;;;15.51;85.06
59419;BME280;45224;50.904;6.038;2022-09-09T05:36:43;99078.97;;;15.49;85.03
59419;BME280;45224;50.904;6.038;2022-09-09T05:38:14;99077.34;;;15.45;85.35
59419;BME280;45224;50.904;6.038;2022-09-09T05:39:44;99075.66;;;15.44;85.28
59419;BME280;45224;50.904;6.038;2022-09-09T05:41:16;99079.25;;;15.40;84.91
59419;BME280;45224;50.904;6.038;2022-09-09T05:42:47;99076.44;;;15.46;84.87
59419;BME280;45224;50.904;6.038;2022-09-09T05:44:18;99080.69;;;15.50;84.74
59419;BME280;45224;50.904;6.038;2022-09-09T05:46:20;99083.50;;;15.43;84.84
59419;BME280;45224;50.904;6.038;2022-09-09T05:47:53;99077.25;;;15.48;84.22
59419;BME280;45224;50.904;6.038;2022-09-09T05:49:24;99082.16;;;15.58;83.87
59419;BME280;45224;50.904;6.038;2022-09-09T05:50:55;99074.53;;;15.51;84.04
59419;BME280;45224;50.904;6.038;2022-09-09T05:52:25;99079.63;;;15.56;84.04
59419;BME280;45224;50.904;6.038;2022-09-09T05:53:57;99073.81;;;15.48;84.44
59419;BME280;45224;50.904;6.038;2022-09-09T05:55:33;99071.38;;;15.42;84.29
59419;BME280;45224;50.904;6.038;2022-09-09T05:57:04;99078.06;;;15.50;84.29
59419;BME280;45224;50.904;6.038;2022-09-09T05:58:37;99069.06;;;15.61;83.33
59419;BME280;45224;50.904;6.038;2022-09-09T06:00:10;99068.25;;;15.59;83.21
59419;BME280;45224;50.904;6.038;2022-09-09T06:01:48;99071.66;;;15.61;83.30
59419;BME280;45224;50.904;6.038;2022-09-09T06:03:27;99083.13;;;15.55;83.30
59419;BME280;45224;50.904;6.038;2022-09-09T06:04:58;99078.78;;;15.56;83.54
59419;BME280;45224;50.904;6.038;2022-09-09T06:06:34;99072.34;;;15.39;83.90
59419;BME280;45224;50.904;6.038;2022-09-09T06:08:15;99079.16;;;15.43;84.18
59419;BME280;45224;50.904;6.038;2022-09-09T06:09:46;99087.63;;;15.50;83.57
59419;BME280;45224;50.904;6.038;2022-09-09T06:11:20;99086.16;;;15.41;84.11
59419;BME280;45224;50.904;6.038;2022-09-09T06:12:52;99086.72;;;15.51;83.43
59419;BME280;45224;50.904;6.038;2022-09-09T06:14:22;99085.97;;;15.47;83.39
59419;BME280;45224;50.904;6.038;2022-09-09T06:15:55;99080.78;;;15.47;83.95
59419;BME280;45224;50.904;6.038;2022-09-09T06:17:26;99081.75;;;15.43;83.62
59419;BME280;45224;50.904;6.038;2022-09-09T06:18:57;99096.22;;;15.54;83.35
59419;BME280;45224;50.904;6.038;2022-09-09T06:20:29;99091.84;;;15.54;83.48
59419;BME280;45224;50.904;6.038;2022-09-09T06:22:01;99095.28;;;15.55;82.92
59419;BME280;45224;50.904;6.038;2022-09-09T06:23:35;99091.91;;;15.52;83.67
59419;BME280;45224;50.904;6.038;2022-09-09T06:25:06;99091.19;;;15.47;83.56
59419;BME280;45224;50.904;6.038;2022-09-09T06:26:38;99098.09;;;15.48;83.35
59419;BME280;45224;50.904;6.038;2022-09-09T06:28:11;99099.44;;;15.62;83.12
59419;BME280;45224;50.904;6.038;2022-09-09T06:29:41;99100.09;;;15.68;82.70
59419;BME280;45224;50.904;6.038;2022-09-09T06:31:13;99087.69;;;15.77;81.39
59419;BME280;45224;50.904;6.038;2022-09-09T06:32:45;99088.13;;;15.90;81.54
59419;BME280;45224;50.904;6.038;2022-09-09T06:34:16;99095.63;;;16.00;81.47
59419;BME280;45224;50.904;6.038;2022-09-09T06:35:51;99101.13;;;16.16;80.97
59419;BME280;45224;50.904;6.038;2022-09-09T06:37:24;99102.44;;;16.30;79.90
59419;BME280;45224;50.904;6.038;2022-09-09T06:38:57;99101.31;;;16.37;79.62
59419;BME280;45224;50.904;6.038;2022-09-09T06:40:28;99091.25;;;16.51;78.78
59419;BME280;45224;50.904;6.038;2022-09-09T06:41:58;99101.16;;;16.67;77.98
59419;BME280;45224;50.904;6.038;2022-09-09T06:43:48;99095.69;;;16.73;77.55
59419;BME280;45224;50.904;6.038;2022-09-09T06:45:20;99091.84;;;16.83;77.69
59419;BME280;45224;50.904;6.038;2022-09-09T06:46:57;99088.63;;;17.00;77.48
59419;BME280;45224;50.904;6.038;2022-09-09T06:48:28;99094.63;;;17.04;76.30
59419;BME280;45224;50.904;6.038;2022-09-09T06:49:59;99092.50;;;17.13;76.69
59419;BME280;45224;50.904;6.038;2022-09-09T06:51:31;99091.81;;;17.08;76.33
59419;BME280;45224;50.904;6.038;2022-09-09T06:53:03;99079.38;;;17.15;76.05
59419;BME280;45224;50.904;6.038;2022-09-09T06:54:34;99086.00;;;17.24;75.04
59419;BME280;45224;50.904;6.038;2022-09-09T06:56:25;99080.72;;;17.25;75.11
59419;BME280;45224;50.904;6.038;2022-09-09T06:57:57;99079.63;;;17.31;75.57
59419;BME280;45224;50.904;6.038;2022-09-09T06:59:28;99082.16;;;17.32;75.31
59419;BME280;45224;50.904;6.038;2022-09-09T07:01:05;99086.63;;;17.30;74.91
59419;BME280;45224;50.904;6.038;2022-09-09T07:02:36;99093.41;;;17.12;74.74
59419;BME280;45224;50.904;6.038;2022-09-09T07:04:09;99098.78;;;17.08;74.29
59419;BME280;45224;50.904;6.038;2022-09-09T07:05:43;99089.44;;;17.02;74.64
59419;BME280;45224;50.904;6.038;2022-09-09T07:07:14;99089.34;;;16.80;74.80
59419;BME280;45224;50.904;6.038;2022-09-09T07:08:53;99092.69;;;16.84;75.21
59419;BME280;45224;50.904;6.038;2022-09-09T07:10:27;99084.72;;;16.88;75.43
59419;BME280;45224;50.904;6.038;2022-09-09T07:11:59;99088.06;;;16.92;74.86
59419;BME280;45224;50.904;6.038;2022-09-09T07:13:33;99083.53;;;16.97;74.94
59419;BME280;45224;50.904;6.038;2022-09-09T07:15:04;99087.44;;;17.09;74.56
59419;BME280;45224;50.904;6.038;2022-09-09T07:16:35;99092.78;;;17.06;74.70
59419;BME280;45224;50.904;6.038;2022-09-09T07:18:07;99084.28;;;17.01;74.70
59419;BME280;45224;50.904;6.038;2022-09-09T07:19:40;99090.13;;;17.07;74.97
59419;BME280;45224;50.904;6.038;2022-09-09T07:21:12;99089.63;;;16.97;74.53
59419;BME280;45224;50.904;6.038;2022-09-09T07:22:43;99094.34;;;17.10;74.46
59419;BME280;45224;50.904;6.038;2022-09-09T07:24:14;99086.56;;;17.08;74.49
59419;BME280;45224;50.904;6.038;2022-09-09T07:25:46;99094.25;;;17.13;74.47
59419;BME280;45224;50.904;6.038;2022-09-09T07:27:19;99091.84;;;17.07;74.54
59419;BME280;45224;50.904;6.038;2022-09-09T07:28:53;99084.50;;;16.94;73.82
59419;BME280;45224;50.904;6.038;2022-09-09T07:30:25;99092.91;;;17.03;73.84
59419;BME280;45224;50.904;6.038;2022-09-09T07:31:56;99087.69;;;17.03;73.71
59419;BME280;45224;50.904;6.038;2022-09-09T07:33:34;99091.00;;;17.06;73.83
59419;BME280;45224;50.904;6.038;2022-09-09T07:35:06;99088.41;;;17.06;73.45
59419;BME280;45224;50.904;6.038;2022-09-09T07:36:39;99101.75;;;16.98;73.29
59419;BME280;45224;50.904;6.038;2022-09-09T07:38:11;99088.63;;;17.00;73.71
59419;BME280;45224;50.904;6.038;2022-09-09T07:39:42;99092.00;;;17.04;73.53
59419;BME280;45224;50.904;6.038;2022-09-09T07:41:21;99078.47;;;17.16;73.23
59419;BME280;45224;50.904;6.038;2022-09-09T07:42:53;99089.50;;;17.23;73.45
59419;BME280;45224;50.904;6.038;2022-09-09T07:44:25;99084.66;;;17.36;73.33
59419;BME280;45224;50.904;6.038;2022-09-09T07:46:08;99089.66;;;17.42;72.48
59419;BME280;45224;50.904;6.038;2022-09-09T07:47:39;99087.59;;;17.50;72.04
59419;BME280;45224;50.904;6.038;2022-09-09T07:49:10;99088.31;;;17.53;72.20
59419;BME280;45224;50.904;6.038;2022-09-09T07:50:41;99089.31;;;17.73;72.09
59419;BME280;45224;50.904;6.038;2022-09-09T07:52:12;99096.34;;;17.71;69.74
59419;BME280;45224;50.904;6.038;2022-09-09T07:53:46;99084.06;;;17.95;69.95
59419;BME280;45224;50.904;6.038;2022-09-09T07:55:16;99091.94;;;18.16;68.70
59419;BME280;45224;50.904;6.038;2022-09-09T07:56:47;99089.91;;;18.43;68.92
59419;BME280;45224;50.904;6.038;2022-09-09T07:58:18;99081.72;;;18.51;68.09
59419;BME280;45224;50.904;6.038;2022-09-09T07:59:48;99087.25;;;18.83;66.94
59419;BME280;45224;50.904;6.038;2022-09-09T08:01:22;99087.63;;;18.75;67.16
59419;BME280;45224;50.904;6.038;2022-09-09T08:02:53;99089.00;;;18.84;66.77
59419;BME280;45224;50.904;6.038;2022-09-09T08:04:25;99087.25;;;18.83;66.43
59419;BME280;45224;50.904;6.038;2022-09-09T08:06:03;99087.56;;;18.76;66.34
59419;BME280;45224;50.904;6.038;2022-09-09T08:07:34;99085.28;;;18.69;66.12
59419;BME280;45224;50.904;6.038;2022-09-09T08:09:06;99088.03;;;18.86;65.85
59419;BME280;45224;50.904;6.038;2022-09-09T08:10:37;99103.81;;;18.85;65.02
59419;BME280;45224;50.904;6.038;2022-09-09T08:12:08;99086.38;;;18.84;65.39
59419;BME280;45224;50.904;6.038;2022-09-09T08:13:39;99091.31;;;19.10;64.83
59419;BME280;45224;50.904;6.038;2022-09-09T08:15:11;99091.78;;;19.19;63.21
59419;BME280;45224;50.904;6.038;2022-09-09T08:16:43;99096.50;;;19.29;63.20
59419;BME280;45224;50.904;6.038;2022-09-09T08:18:15;99097.94;;;19.37;62.55
59419;BME280;45224;50.904;6.038;2022-09-09T08:19:46;99097.06;;;19.55;61.87
59419;BME280;45224;50.904;6.038;2022-09-09T08:21:30;99090.28;;;19.32;61.69
59419;BME280;45224;50.904;6.038;2022-09-09T08:23:02;99106.28;;;19.26;62.06
59419;BME280;45224;50.904;6.038;2022-09-09T08:24:33;99118.47;;;19.08;62.42
59419;BME280;45224;50.904;6.038;2022-09-09T08:26:15;99117.50;;;19.10;62.08
59419;BME280;45224;50.904;6.038;2022-09-09T08:27:46;99101.81;;;19.28;61.88
59419;BME280;45224;50.904;6.038;2022-09-09T08:29:17;99127.97;;;19.29;61.72
59419;BME280;45224;50.904;6.038;2022-09-09T08:30:49;99128.53;;;18.98;62.35
59419;BME280;45224;50.904;6.038;2022-09-09T08:32:22;99117.19;;;19.16;61.59
59419;BME280;45224;50.904;6.038;2022-09-09T08:33:54;99113.72;;;19.35;61.46
59419;BME280;45224;50.904;6.038;2022-09-09T08:35:25;99121.47;;;19.38;61.54
59419;BME280;45224;50.904;6.038;2022-09-09T08:36:55;99119.69;;;19.20;61.15
59419;BME280;45224;50.904;6.038;2022-09-09T08:38:32;99121.19;;;19.44;62.03
59419;BME280;45224;50.904;6.038;2022-09-09T08:40:04;99115.19;;;19.60;61.09
59419;BME280;45224;50.904;6.038;2022-09-09T08:42:04;99108.47;;;19.91;61.07
59419;BME280;45224;50.904;6.038;2022-09-09T08:43:45;99125.72;;;20.14;59.25
59419;BME280;45224;50.904;6.038;2022-09-09T08:45:31;99113.91;;;20.40;57.56
59419;BME280;45224;50.904;6.038;2022-09-09T08:48:58;99121.81;;;21.07;57.53
59419;BME280;45224;50.904;6.038;2022-09-09T08:50:38;99118.03;;;21.28;56.03
59419;BME280;45224;50.904;6.038;2022-09-09T08:52:21;99120.91;;;21.72;55.67
59419;BME280;45224;50.904;6.038;2022-09-09T08:53:53;99119.69;;;21.93;54.62